Stockham, Nebraska
Current Conditions -  °F | °C
As of 8:15 AM on Saturday 25 Oct 2014 (Local Time) from KAUH Reporting Station
Clear Clear  
Wind Chill: 42°   Ceiling: Unl
Heat Index: 42°   Visibility: 10mi
Dew Point: 39°   Wind: 3mph
Humidity: 90%   Direction: 350°N
Pressure: 30.11"   Gusts: NA
Location:  40.8232°N, 98.0482°W
Report Text: KAUH 251315Z AUTO 35003KT 10SM CLR 06/04 A3011 RMK AO2 T00550040
Loading
Personal Weather Stations






























Interactive Weather Map
Tropical Storm Tracking
New forecast layout! Learn more

10-Day Weather Forecast

Advertisements
Track Severe Weather on mobile